Time;durP1;ratioP1;P1;durP2;ratioP2;P2;SDS_P1;SDS_P2;PMS_P1;PMS_P2;Temp;Humidity;BMP_temperature;BMP_pressure;BME280_temperature;BME280_humidity;BME280_pressure;Samples;Min_cycle;Max_cycle;Signal;HPM_P1;HPM_P2
2022/04/13 00:00:01;;;;;;;;;0.00;0.00;;;;;15.91;59.94;100434.19;5074030;28;45371;-77
2022/04/13 00:02:26;;;;;;;;;1.00;0.00;;;;;15.91;59.90;100436.88;5074052;27;45424;-77
2022/04/13 00:04:52;;;;;;;;;0.00;0.00;;;;;15.90;60.14;100437.81;5074963;28;45522;-77
2022/04/13 00:07:17;;;;;;;;;1.00;0.00;;;;;15.88;60.24;100445.00;5072797;27;46000;-78
2022/04/13 00:09:42;;;;;;;;;0.00;0.00;;;;;15.90;60.14;100443.16;5075858;28;45337;-76
2022/04/13 00:12:08;;;;;;;;;2.50;1.25;;;;;15.91;60.21;100452.84;5074870;28;45409;-77
2022/04/13 00:14:34;;;;;;;;;0.50;0.50;;;;;15.86;60.16;100450.38;5075390;28;45426;-77
2022/04/13 00:16:59;;;;;;;;;0.00;0.00;;;;;15.87;60.61;100456.59;5073645;27;45335;-77
2022/04/13 00:19:26;;;;;;;;;2.00;0.25;;;;;15.86;60.41;100453.06;5078043;28;45392;-77
2022/04/13 00:21:51;;;;;;;;;0.25;0.00;;;;;15.87;60.79;100462.78;5077255;28;45418;-76
2022/04/13 00:24:16;;;;;;;;;0.00;0.00;;;;;15.85;60.85;100459.34;5074438;28;45625;-77
2022/04/13 00:26:43;;;;;;;;;0.25;0.25;;;;;15.83;60.70;100455.84;5073399;27;45366;-76
2022/04/13 00:29:09;;;;;;;;;0.00;0.00;;;;;15.81;60.77;100463.91;5073451;28;45387;-76
2022/04/13 00:31:35;;;;;;;;;0.00;0.00;;;;;15.83;61.00;100473.66;5074132;28;45519;-76
2022/04/13 00:34:00;;;;;;;;;0.00;0.00;;;;;15.72;60.79;100456.28;5074324;28;45394;-76
2022/04/13 00:36:26;;;;;;;;;0.00;0.00;;;;;15.81;61.12;100471.91;5073513;28;48204;-77
2022/04/13 00:38:51;;;;;;;;;0.00;0.00;;;;;15.83;61.04;100473.66;5075842;28;45629;-77
2022/04/13 00:41:17;;;;;;;;;0.00;0.00;;;;;15.85;60.71;100467.34;5064535;28;45549;-76
2022/04/13 00:43:43;;;;;;;;;1.00;0.00;;;;;15.84;60.84;100472.72;5054483;28;45524;-77
2022/04/13 00:46:10;;;;;;;;;0.25;0.00;;;;;15.83;60.92;100468.31;5041916;27;46125;-75
2022/04/13 00:48:39;;;;;;;;;0.00;0.00;;;;;15.82;60.94;100467.47;5079431;28;45414;-76
2022/04/13 00:51:05;;;;;;;;;0.00;0.00;;;;;15.75;61.71;100452.63;5081257;28;45442;-77
2022/04/13 00:53:31;;;;;;;;;0.00;0.00;;;;;15.80;61.08;100459.53;5077480;28;45583;-75
2022/04/13 00:55:58;;;;;;;;;0.00;0.00;;;;;15.78;61.14;100458.72;5074814;27;46280;-76
2022/04/13 00:58:27;;;;;;;;;0.00;0.00;;;;;15.76;61.30;100465.91;5075569;28;45508;-77
2022/04/13 01:00:54;;;;;;;;;0.00;0.00;;;;;15.69;61.40;100458.25;5077364;28;45340;-77
2022/04/13 01:03:21;;;;;;;;;0.00;0.00;;;;;15.69;61.62;100464.41;5059112;28;45577;-75
2022/04/13 01:05:47;;;;;;;;;0.00;0.00;;;;;15.66;61.78;100469.03;5078185;27;46196;-76
2022/04/13 01:08:14;;;;;;;;;0.00;0.00;;;;;15.63;61.93;100462.03;5077480;28;45758;-74
2022/04/13 01:10:42;;;;;;;;;1.00;1.00;;;;;15.56;62.08;100458.78;5058265;28;45495;-75
2022/04/13 01:13:09;;;;;;;;;0.75;0.00;;;;;15.59;62.59;100476.41;5077539;28;45314;-76
2022/04/13 01:15:35;;;;;;;;;0.00;0.00;;;;;15.58;62.32;100464.03;5059232;28;45441;-76
2022/04/13 01:18:00;;;;;;;;;0.00;0.00;;;;;15.59;62.15;100471.06;5077332;28;45553;-76
2022/04/13 01:20:26;;;;;;;;;0.00;0.00;;;;;15.57;62.58;100468.47;5079358;27;45437;-77
2022/04/13 01:22:52;;;;;;;;;0.00;0.00;;;;;15.57;62.65;100464.94;5079474;28;45466;-76
2022/04/13 01:25:17;;;;;;;;;3.00;0.25;;;;;15.54;62.48;100455.28;5057615;28;45468;-76
2022/04/13 01:27:44;;;;;;;;;0.75;0.75;;;;;15.53;62.83;100468.66;5076492;28;45521;-77
2022/04/13 01:30:11;;;;;;;;;0.00;0.00;;;;;15.48;63.55;100462.69;5079021;27;45422;-75
2022/04/13 01:32:37;;;;;;;;;0.00;0.00;;;;;15.50;63.78;100477.66;5099383;27;45394;-75
2022/04/13 01:35:02;;;;;;;;;0.00;0.00;;;;;15.47;64.89;100472.44;5097229;27;45386;-75
2022/04/13 01:37:28;;;;;;;;;4.00;2.00;;;;;15.46;64.36;100474.25;5082772;27;45484;-77
2022/04/13 01:39:54;;;;;;;;;1.75;0.00;;;;;15.43;64.45;100469.06;5059494;27;45450;-76
2022/04/13 01:42:20;;;;;;;;;0.00;0.00;;;;;15.45;64.84;100488.50;5058338;27;45575;-76
2022/04/13 01:44:47;;;;;;;;;0.50;0.50;;;;;15.41;64.99;100480.69;5056298;28;46298;-76
2022/04/13 01:47:12;;;;;;;;;0.00;0.00;;;;;15.42;65.00;100477.09;5060699;28;45601;-76
2022/04/13 01:49:38;;;;;;;;;0.00;0.00;;;;;15.39;65.15;100477.25;5076742;27;45413;-77
2022/04/13 01:52:05;;;;;;;;;0.00;0.00;;;;;15.39;65.93;100471.91;5060201;28;45371;-77
2022/04/13 01:54:31;;;;;;;;;1.00;1.00;;;;;15.36;65.12;100482.69;5077796;28;45378;-76
2022/04/13 01:56:57;;;;;;;;;0.00;0.00;;;;;15.38;65.33;100487.03;5075277;28;45394;-76
2022/04/13 01:59:22;;;;;;;;;0.75;0.75;;;;;15.40;64.91;100495.81;5075797;28;45329;-77
2022/04/13 02:01:48;;;;;;;;;0.25;0.25;;;;;15.35;65.10;100491.59;5076174;28;45284;-76
2022/04/13 02:04:20;;;;;;;;;0.00;0.00;;;;;15.40;64.88;100501.13;5076242;28;46162;-76
2022/04/13 02:06:47;;;;;;;;;0.00;0.00;;;;;15.37;65.00;100501.28;5075053;28;45497;-76
2022/04/13 02:09:17;;;;;;;;;0.00;0.00;;;;;15.35;65.24;100494.25;5076144;28;45504;-76
2022/04/13 02:11:43;;;;;;;;;0.00;0.00;;;;;15.34;65.27;100496.06;5076743;28;45446;-77
2022/04/13 02:14:09;;;;;;;;;7.00;1.75;;;;;15.35;65.23;100502.25;5075800;27;45462;-76
2022/04/13 02:16:35;;;;;;;;;0.75;0.75;;;;;15.34;65.18;100505.88;5076060;27;45607;-76
2022/04/13 02:19:00;;;;;;;;;0.00;0.00;;;;;15.28;65.09;100505.16;5077525;28;45508;-75
2022/04/13 02:21:25;;;;;;;;;0.75;0.75;;;;;15.27;65.12;100499.91;5078004;28;45355;-74
2022/04/13 02:23:51;;;;;;;;;0.75;0.75;;;;;15.29;65.38;100506.06;5077779;28;46112;-76
2022/04/13 02:26:17;;;;;;;;;0.00;0.00;;;;;15.32;65.45;100513.03;5078613;28;51488;-76
2022/04/13 02:28:43;;;;;;;;;2.00;0.25;;;;;15.27;65.38;100506.13;5077590;28;45358;-76
2022/04/13 02:31:08;;;;;;;;;1.00;1.00;;;;;15.26;65.86;100516.81;5075631;27;45348;-76
2022/04/13 02:33:34;;;;;;;;;0.00;0.00;;;;;15.27;66.08;100516.75;5075894;28;45514;-76
2022/04/13 02:35:59;;;;;;;;;4.00;0.25;;;;;15.27;66.39;100526.53;5075578;28;45593;-76
2022/04/13 02:38:26;;;;;;;;;0.00;0.00;;;;;15.23;66.92;100515.16;5075529;27;45512;-76
2022/04/13 02:40:52;;;;;;;;;0.00;0.00;;;;;15.18;66.80;100502.94;5074106;28;45515;-76
2022/04/13 02:43:18;;;;;;;;;0.00;0.00;;;;;15.22;67.45;100518.72;5057161;28;47219;-76
2022/04/13 02:45:43;;;;;;;;;1.00;1.00;;;;;15.22;67.37;100517.88;5075028;28;45340;-76
2022/04/13 02:48:09;;;;;;;;;0.50;0.00;;;;;15.19;67.74;100507.34;5056690;28;45466;-76
2022/04/13 02:50:34;;;;;;;;;0.25;0.25;;;;;15.20;67.71;100514.41;5057211;28;45361;-75
2022/04/13 02:53:00;;;;;;;;;0.00;0.00;;;;;15.11;68.20;100499.66;5079129;28;45483;-74
2022/04/13 02:55:25;;;;;;;;;1.00;1.00;;;;;15.12;68.14;100509.38;5078767;28;45358;-76
2022/04/13 02:57:51;;;;;;;;;1.00;0.75;;;;;15.12;68.15;100503.19;5075490;28;45399;-75
2022/04/13 03:00:17;;;;;;;;;0.75;0.75;;;;;15.10;69.06;100508.56;5074427;27;45854;-75
2022/04/13 03:02:44;;;;;;;;;1.25;1.25;;;;;15.07;69.28;100514.03;5074671;28;45422;-76
2022/04/13 03:05:10;;;;;;;;;0.50;0.50;;;;;15.02;69.27;100503.56;5055400;28;45618;-76
2022/04/13 03:07:35;;;;;;;;;1.00;1.00;;;;;15.02;69.78;100516.88;5073870;28;45491;-76
2022/04/13 03:10:01;;;;;;;;;1.00;1.00;;;;;15.03;69.71;100528.38;5074286;28;45471;-77
2022/04/13 03:12:28;;;;;;;;;0.00;0.00;;;;;14.97;69.64;100524.19;5075045;28;45438;-75
2022/04/13 03:14:54;;;;;;;;;3.00;1.25;;;;;14.96;69.79;100522.44;5075785;28;45549;-75
2022/04/13 03:17:19;;;;;;;;;1.00;1.00;;;;;14.95;69.85;100535.78;5074664;28;45553;-76
2022/04/13 03:19:44;;;;;;;;;2.00;0.00;;;;;14.92;70.62;100544.75;5075159;28;45530;-75
2022/04/13 03:22:10;;;;;;;;;0.00;0.00;;;;;14.90;71.15;100538.63;5074543;27;45330;-74
2022/04/13 03:24:35;;;;;;;;;0.00;0.00;;;;;14.86;71.36;100535.22;5077454;28;45286;-76
2022/04/13 03:27:01;;;;;;;;;1.00;0.75;;;;;14.87;71.67;100544.06;5056035;28;45312;-75
2022/04/13 03:29:26;;;;;;;;;0.00;0.00;;;;;14.84;71.87;100544.19;5074828;28;45632;-75
2022/04/13 03:31:51;;;;;;;;;0.50;0.50;;;;;14.80;71.42;100547.88;5074575;28;46234;-77
2022/04/13 03:34:20;;;;;;;;;2.00;0.00;;;;;14.80;72.00;100553.22;5073326;28;46797;-76
2022/04/13 03:36:49;;;;;;;;;1.25;0.25;;;;;14.82;72.91;100562.00;5089612;27;45437;-75
2022/04/13 03:39:15;;;;;;;;;0.50;0.50;;;;;14.81;72.70;100561.13;5074667;28;45437;-76
2022/04/13 03:41:41;;;;;;;;;1.00;1.00;;;;;14.78;73.40;100563.06;5074066;28;46913;-76
2022/04/13 03:44:08;;;;;;;;;1.00;1.00;;;;;14.75;73.63;100566.69;5074578;28;45462;-75
2022/04/13 03:46:34;;;;;;;;;4.75;1.00;;;;;14.75;74.79;100572.88;5056617;28;45418;-76
2022/04/13 03:48:59;;;;;;;;;1.25;1.25;;;;;14.68;74.51;100550.09;5075708;28;45468;-75
2022/04/13 03:51:25;;;;;;;;;1.00;1.00;;;;;14.70;74.76;100569.53;5077495;28;45469;-76
2022/04/13 03:53:51;;;;;;;;;1.50;0.75;;;;;14.68;74.17;100560.75;5077605;28;45383;-76
2022/04/13 03:56:17;;;;;;;;;0.00;0.00;;;;;14.69;74.31;100569.56;5075985;28;45642;-76
2022/04/13 03:58:42;;;;;;;;;1.25;1.25;;;;;14.69;74.72;100567.78;5074263;28;45403;-76
2022/04/13 04:01:08;;;;;;;;;2.00;0.75;;;;;14.65;74.74;100571.50;5074474;27;46602;-76
2022/04/13 04:03:35;;;;;;;;;1.00;1.00;;;;;14.62;74.82;100568.06;5074420;28;45471;-74
2022/04/13 04:06:01;;;;;;;;;1.00;1.00;;;;;14.60;75.37;100576.06;5079850;27;45410;-76
2022/04/13 04:08:27;;;;;;;;;1.00;1.00;;;;;14.57;76.05;100573.53;5077798;27;45370;-76
2022/04/13 04:10:53;;;;;;;;;5.00;1.00;;;;;14.54;76.58;100568.31;5074100;28;46038;-76
2022/04/13 04:13:19;;;;;;;;;3.00;2.00;;;;;14.49;76.34;100571.13;5074718;28;45342;-75
2022/04/13 04:15:45;;;;;;;;;2.00;1.00;;;;;14.50;77.23;100577.31;5073690;28;45462;-76
2022/04/13 04:18:10;;;;;;;;;5.25;1.25;;;;;14.48;77.21;100579.19;5075242;28;45513;-75
2022/04/13 04:20:35;;;;;;;;;4.00;2.00;;;;;14.46;78.19;100581.88;5077191;28;45418;-73
2022/04/13 04:23:01;;;;;;;;;1.00;1.00;;;;;14.42;77.49;100590.03;5077968;28;45415;-76
2022/04/13 04:25:26;;;;;;;;;3.50;1.25;;;;;14.40;77.34;100590.94;5083145;27;45661;-76
2022/04/13 04:27:51;;;;;;;;;2.50;2.50;;;;;14.33;77.26;100581.47;5078591;28;45441;-75
2022/04/13 04:30:17;;;;;;;;;5.50;3.50;;;;;14.40;77.69;100592.75;5077480;28;45504;-76
2022/04/13 04:32:42;;;;;;;;;4.50;1.00;;;;;14.38;78.22;100605.25;5077666;28;45450;-75
2022/04/13 04:35:08;;;;;;;;;4.50;2.00;;;;;14.36;78.16;100599.97;5077407;27;45389;-75
2022/04/13 04:37:34;;;;;;;;;2.00;1.00;;;;;14.34;77.93;100604.47;5058731;28;45653;-75
2022/04/13 04:39:59;;;;;;;;;0.75;0.75;;;;;14.31;77.72;100604.56;5084447;27;45340;-77
2022/04/13 04:42:27;;;;;;;;;5.00;2.00;;;;;14.34;78.63;100604.47;5057475;27;45328;-76
2022/04/13 04:44:59;;;;;;;;;1.00;1.00;;;;;14.31;78.62;100615.19;5059950;27;45478;-77
2022/04/13 04:47:25;;;;;;;;;4.50;3.00;;;;;14.29;78.19;100611.75;5092123;27;45552;-76
2022/04/13 04:49:51;;;;;;;;;4.00;4.00;;;;;14.24;78.95;100602.19;5077237;27;46484;-76
2022/04/13 04:52:16;;;;;;;;;2.50;2.50;;;;;14.26;79.23;100606.53;5077825;28;45337;-76
2022/04/13 04:54:42;;;;;;;;;2.50;1.00;;;;;14.26;78.80;100603.88;5081801;28;45373;-75
2022/04/13 04:57:10;;;;;;;;;2.50;1.75;;;;;14.21;79.75;100601.38;5081097;27;45413;-77
2022/04/13 04:59:35;;;;;;;;;1.00;1.00;;;;;14.23;79.05;100611.97;5076460;27;46268;-76
2022/04/13 05:02:01;;;;;;;;;5.50;3.50;;;;;14.24;79.15;100619.00;5076776;28;45410;-76
2022/04/13 05:04:26;;;;;;;;;3.50;1.50;;;;;14.22;79.87;100610.22;5077225;28;45391;-76
2022/04/13 05:06:52;;;;;;;;;4.50;4.00;;;;;14.17;80.02;100605.06;5093063;27;45454;-77
2022/04/13 05:09:18;;;;;;;;;7.25;4.00;;;;;14.15;79.01;100614.88;5076419;28;45481;-76
2022/04/13 05:11:44;;;;;;;;;4.75;4.25;;;;;14.08;79.63;100607.16;5077641;28;45563;-77
2022/04/13 05:14:09;;;;;;;;;1.50;1.50;;;;;14.17;80.69;100622.81;5078647;28;45474;-76
2022/04/13 05:16:34;;;;;;;;;3.25;2.00;;;;;14.18;80.47;100629.84;5076813;28;47537;-77
2022/04/13 05:19:00;;;;;;;;;2.50;2.50;;;;;14.18;80.21;100625.41;5077010;28;46002;-78
2022/04/13 05:21:26;;;;;;;;;1.25;1.25;;;;;14.19;79.48;100628.91;5096466;27;45316;-77
2022/04/13 05:23:51;;;;;;;;;7.50;4.00;;;;;14.20;80.02;100638.63;5098331;27;45352;-76
2022/04/13 05:26:18;;;;;;;;;2.50;2.50;;;;;14.19;80.18;100639.56;5099896;27;45308;-77
2022/04/13 05:28:47;;;;;;;;;4.00;4.00;;;;;14.20;80.73;100633.31;5082831;27;45375;-76
2022/04/13 05:31:13;;;;;;;;;8.00;4.50;;;;;14.15;80.23;100622.84;5076996;27;45362;-77
2022/04/13 05:33:38;;;;;;;;;4.50;4.00;;;;;14.16;80.20;100631.69;5097010;27;45472;-78
2022/04/13 05:36:04;;;;;;;;;2.00;2.00;;;;;14.16;80.05;100631.69;5097368;27;45469;-77
2022/04/13 05:38:29;;;;;;;;;7.50;4.00;;;;;14.17;80.24;100636.09;5063779;28;46226;-76
2022/04/13 05:40:55;;;;;;;;;7.75;5.00;;;;;14.13;79.33;100626.47;5069736;28;45288;-77
2022/04/13 05:43:20;;;;;;;;;5.00;5.00;;;;;14.13;79.62;100631.78;5056927;28;45332;-76
2022/04/13 05:45:46;;;;;;;;;8.00;7.00;;;;;14.14;79.69;100638.84;5062134;27;45403;-80
2022/04/13 05:48:11;;;;;;;;;5.00;5.00;;;;;14.14;79.92;100638.84;5058531;28;46242;-80
2022/04/13 05:50:37;;;;;;;;;6.25;4.25;;;;;14.16;80.04;100642.31;5077259;28;45474;-81
2022/04/13 05:53:02;;;;;;;;;2.00;2.00;;;;;14.16;79.75;100643.16;5076955;28;45334;-80
2022/04/13 05:55:28;;;;;;;;;7.00;4.50;;;;;14.15;79.86;100640.56;5080988;27;45391;-81
2022/04/13 05:57:53;;;;;;;;;7.75;5.00;;;;;14.16;80.07;100639.66;5080757;27;45516;-82
2022/04/13 06:00:20;;;;;;;;;5.25;4.25;;;;;14.20;80.38;100650.13;5056551;28;45343;-80
2022/04/13 06:02:45;;;;;;;;;4.25;4.25;;;;;14.19;80.39;100659.00;5056520;28;45515;-78
2022/04/13 06:05:11;;;;;;;;;7.00;4.50;;;;;14.23;80.20;100657.16;5056420;27;45440;-80
2022/04/13 06:07:37;;;;;;;;;9.00;7.25;;;;;14.18;79.71;100656.41;5078113;28;45373;-81
2022/04/13 06:10:04;;;;;;;;;8.75;5.75;;;;;14.19;80.08;100663.47;5078887;28;45467;-81
2022/04/13 06:12:29;;;;;;;;;5.75;4.75;;;;;14.20;79.67;100665.22;5076837;28;45386;-81
2022/04/13 06:15:09;;;;;;;;;6.50;6.50;;;;;14.20;79.52;100673.19;5076096;28;45553;-82
2022/04/13 06:17:35;;;;;;;;;4.25;4.25;;;;;14.17;80.32;100676.81;5075643;28;45533;-80
2022/04/13 06:20:02;;;;;;;;;7.50;7.00;;;;;14.18;80.36;100683.88;5075886;28;45498;-82
2022/04/13 06:22:31;;;;;;;;;7.00;7.00;;;;;14.17;80.12;100679.47;5076868;28;45483;-81
2022/04/13 06:24:57;;;;;;;;;3.50;3.50;;;;;14.17;79.66;100682.13;5079527;28;45450;-81
2022/04/13 06:27:22;;;;;;;;;6.25;2.00;;;;;14.15;80.56;100688.41;5064988;28;46064;-81
2022/04/13 06:29:47;;;;;;;;;7.00;5.00;;;;;14.16;80.58;100691.00;5078710;28;48110;-81
2022/04/13 06:32:13;;;;;;;;;2.00;2.00;;;;;14.16;81.02;100698.13;5075974;28;45445;-77
2022/04/13 06:34:39;;;;;;;;;6.00;6.00;;;;;14.12;80.54;100709.78;5076249;27;45402;-77
2022/04/13 06:37:04;;;;;;;;;7.75;5.50;;;;;14.12;80.79;100715.09;5077622;28;45391;-76
2022/04/13 06:39:30;;;;;;;;;7.00;4.50;;;;;14.12;81.39;100712.44;5075682;28;45443;-76
2022/04/13 06:41:55;;;;;;;;;2.00;2.00;;;;;14.11;81.58;100713.38;5074114;27;45435;-77
2022/04/13 06:44:21;;;;;;;;;9.25;6.50;;;;;14.13;81.37;100722.16;5074018;28;45756;-77
2022/04/13 06:46:46;;;;;;;;;9.75;6.50;;;;;14.15;81.67;100717.66;5075495;28;45953;-76
2022/04/13 06:49:12;;;;;;;;;10.00;8.00;;;;;14.19;82.01;100727.28;5075713;27;45406;-77
2022/04/13 06:51:37;;;;;;;;;4.75;3.00;;;;;14.18;82.03;100728.19;5076599;28;45481;-77
2022/04/13 06:54:02;;;;;;;;;6.00;6.00;;;;;14.16;82.07;100738.00;5076368;28;45370;-77
2022/04/13 06:56:28;;;;;;;;;7.75;4.50;;;;;14.18;82.01;100744.13;5077427;27;46170;-76
2022/04/13 06:58:53;;;;;;;;;12.75;8.00;;;;;14.18;82.42;100744.13;5080580;28;45359;-77
2022/04/13 07:01:18;;;;;;;;;7.00;7.00;;;;;14.09;82.00;100744.41;5075287;28;45564;-77
2022/04/13 07:03:44;;;;;;;;;7.50;5.00;;;;;14.15;82.80;100754.84;5075841;28;45511;-77
2022/04/13 07:06:09;;;;;;;;;7.50;6.50;;;;;14.18;82.54;100758.31;5075947;28;46363;-76
2022/04/13 07:08:34;;;;;;;;;8.25;6.00;;;;;14.15;82.41;100757.50;5074874;28;45435;-77
2022/04/13 07:11:00;;;;;;;;;7.00;7.00;;;;;14.21;82.60;100771.50;5076155;28;45997;-81
2022/04/13 07:13:25;;;;;;;;;7.75;7.75;;;;;14.23;82.67;100784.75;5073649;28;45524;-80
2022/04/13 07:15:52;;;;;;;;;10.00;7.00;;;;;14.21;82.81;100786.56;5074961;27;46270;-80
2022/04/13 07:18:18;;;;;;;;;3.50;3.00;;;;;14.21;82.94;100790.09;5074258;28;45430;-80
2022/04/13 07:20:44;;;;;;;;;11.25;8.00;;;;;14.19;82.76;100791.06;5073318;27;45552;-75
2022/04/13 07:23:09;;;;;;;;;6.00;6.00;;;;;14.23;82.03;100795.38;5076832;27;45466;-75
2022/04/13 07:25:34;;;;;;;;;5.00;2.50;;;;;14.24;82.23;100796.22;5071849;27;46076;-75
2022/04/13 07:28:00;;;;;;;;;5.00;4.25;;;;;14.20;81.21;100796.31;5083811;27;45393;-76
2022/04/13 07:30:26;;;;;;;;;6.75;6.00;;;;;14.26;81.65;100800.59;5083819;27;46008;-76
2022/04/13 07:32:54;;;;;;;;;10.50;7.25;;;;;14.24;82.54;100810.38;5074262;28;45474;-75
2022/04/13 07:35:20;;;;;;;;;8.00;7.00;;;;;14.21;80.86;100805.16;5069766;27;46595;-76
2022/04/13 07:37:45;;;;;;;;;5.00;5.00;;;;;14.16;82.14;100801.78;5073357;28;45467;-75
2022/04/13 07:40:13;;;;;;;;;11.25;10.75;;;;;14.24;81.53;100813.03;5055213;27;45471;-77
2022/04/13 07:42:38;;;;;;;;;7.50;7.50;;;;;14.25;82.22;100805.97;5080722;27;45550;-77
2022/04/13 07:45:05;;;;;;;;;10.25;7.50;;;;;14.23;82.14;100798.03;5075570;27;45980;-76
2022/04/13 07:47:31;;;;;;;;;10.00;8.00;;;;;14.28;82.26;100809.38;5073747;27;45503;-77
2022/04/13 07:49:57;;;;;;;;;10.00;10.00;;;;;14.27;82.96;100805.00;5076682;27;46442;-75
2022/04/13 07:52:22;;;;;;;;;8.00;8.00;;;;;14.32;82.96;100816.34;5072671;27;45530;-76
2022/04/13 07:54:48;;;;;;;;;11.75;11.25;;;;;14.36;83.85;100815.34;5072436;27;45433;-76
2022/04/13 07:57:13;;;;;;;;;7.75;7.75;;;;;14.40;83.02;100810.78;5079670;27;45564;-76
2022/04/13 07:59:40;;;;;;;;;8.00;8.00;;;;;14.42;81.02;100803.59;5082330;28;45594;-75
2022/04/13 08:02:06;;;;;;;;;8.00;7.00;;;;;14.46;80.84;100807.06;5075359;27;45533;-75
2022/04/13 08:04:34;;;;;;;;;7.25;7.25;;;;;14.46;81.22;100813.25;5075005;28;46576;-75
2022/04/13 08:06:59;;;;;;;;;6.25;6.00;;;;;14.43;80.91;100815.13;5076269;28;45394;-76
2022/04/13 08:09:24;;;;;;;;;5.50;3.00;;;;;14.38;80.49;100797.53;5057982;28;45423;-76
2022/04/13 08:11:52;;;;;;;;;6.75;4.00;;;;;14.45;80.60;100818.59;5075929;27;45902;-76
2022/04/13 08:14:19;;;;;;;;;5.50;5.00;;;;;14.48;80.10;100818.50;5076713;27;45615;-76
2022/04/13 08:16:44;;;;;;;;;2.00;2.00;;;;;14.50;80.97;100821.97;5065509;27;45510;-77
2022/04/13 08:19:10;;;;;;;;;5.00;5.00;;;;;14.50;80.39;100828.19;5085040;27;45485;-77
2022/04/13 08:21:37;;;;;;;;;7.00;5.00;;;;;14.51;80.11;100823.72;5085509;27;45698;-77
2022/04/13 08:24:03;;;;;;;;;5.00;4.50;;;;;14.55;80.07;100830.69;5095022;27;46250;-76
2022/04/13 08:26:28;;;;;;;;;6.50;5.00;;;;;14.60;80.77;100828.75;5080486;27;45294;-76
2022/04/13 08:28:54;;;;;;;;;4.50;4.50;;;;;14.62;81.89;100821.63;5088057;27;45532;-77
2022/04/13 08:31:19;;;;;;;;;5.00;5.00;;;;;14.69;81.08;100830.28;5079963;27;45387;-80
2022/04/13 08:33:46;;;;;;;;;4.75;4.75;;;;;14.75;80.12;100828.25;5085081;27;45962;-81
2022/04/13 08:36:12;;;;;;;;;7.25;7.25;;;;;14.77;78.78;100840.66;5084064;27;45583;-81
2022/04/13 08:38:38;;;;;;;;;7.50;6.00;;;;;14.72;79.10;100839.00;5082988;27;45500;-79
2022/04/13 08:41:24;;;;;;;;;5.50;1.75;;;;;14.75;79.42;100852.22;5065695;27;45414;-83
2022/04/13 08:44:01;;;;;;;;;7.50;6.00;;;;;14.72;78.76;100860.28;5074792;27;46142;-81
2022/04/13 08:46:27;;;;;;;;;7.25;4.00;;;;;14.68;78.40;100858.69;5088709;27;45369;-80
2022/04/13 08:48:56;;;;;;;;;10.75;7.25;;;;;14.63;79.01;100849.94;5086099;27;45490;-79
2022/04/13 08:51:23;;;;;;;;;9.25;5.50;;;;;14.71;79.14;100873.66;5078147;27;45450;-80
2022/04/13 08:54:03;;;;;;;;;7.50;7.50;;;;;14.73;80.04;100872.69;5068086;27;46287;-80
2022/04/13 08:56:34;;;;;;;;;8.50;7.00;;;;;14.73;78.92;100880.66;5079856;27;45390;-80
2022/04/13 08:59:06;;;;;;;;;7.75;7.25;;;;;14.73;80.01;100878.00;5067893;28;45417;-80
2022/04/13 09:01:38;;;;;;;;;7.50;6.00;;;;;14.72;78.92;100881.56;5078485;28;45540;-80
2022/04/13 09:04:10;;;;;;;;;5.00;4.75;;;;;14.68;78.60;100889.72;5059855;28;45463;-76
2022/04/13 09:06:38;;;;;;;;;5.00;3.00;;;;;14.63;78.42;100886.34;5059231;28;45909;-75
2022/04/13 09:09:19;;;;;;;;;9.00;6.00;;;;;14.55;78.74;100898.03;5096481;27;45535;-75
2022/04/13 09:11:46;;;;;;;;;5.00;4.00;;;;;14.52;79.83;100905.25;5102279;27;45500;-77
2022/04/13 09:14:13;;;;;;;;;5.75;5.00;;;;;14.45;78.89;100895.72;5098952;27;46262;-74
2022/04/13 09:16:42;;;;;;;;;6.00;4.25;;;;;14.49;79.77;100908.03;5098401;27;45357;-76
2022/04/13 09:19:08;;;;;;;;;4.00;2.00;;;;;14.48;78.31;100903.59;5077851;27;45331;-76
2022/04/13 09:21:34;;;;;;;;;7.75;4.75;;;;;14.47;79.21;100908.06;5077249;28;45339;-77
2022/04/13 09:24:00;;;;;;;;;4.50;3.00;;;;;14.54;79.29;100911.41;5080814;27;46135;-77
2022/04/13 09:26:25;;;;;;;;;4.75;1.25;;;;;14.55;78.58;100905.16;5097705;27;45424;-77
2022/04/13 09:28:51;;;;;;;;;7.00;4.25;;;;;14.62;78.84;100908.53;5103887;27;45444;-76
2022/04/13 09:31:16;;;;;;;;;4.25;4.25;;;;;14.64;78.29;100915.53;5079617;27;45354;-76
2022/04/13 09:33:43;;;;;;;;;7.75;7.50;;;;;14.82;78.94;100924.75;5058078;28;47893;-75
2022/04/13 09:36:08;;;;;;;;;7.25;6.00;;;;;14.86;79.08;100920.19;5059010;28;45395;-80
2022/04/13 09:38:35;;;;;;;;;10.00;7.00;;;;;14.94;78.63;100934.13;5058406;28;45463;-81
2022/04/13 09:41:09;;;;;;;;;8.25;5.50;;;;;15.01;79.05;100935.63;5076182;28;45393;-76
2022/04/13 09:43:52;;;;;;;;;10.25;5.00;;;;;15.03;78.25;100932.94;5076936;27;45556;-77
2022/04/13 09:46:29;;;;;;;;;7.75;7.75;;;;;15.00;77.69;100925.03;5058564;28;45448;-78
2022/04/13 09:49:15;;;;;;;;;8.50;8.50;;;;;15.07;77.27;100938.09;5058171;28;45578;-81
2022/04/13 09:52:00;;;;;;;;;2.25;2.25;;;;;15.03;77.11;100928.50;5056059;28;45381;-79
2022/04/13 09:54:26;;;;;;;;;5.75;4.75;;;;;15.08;77.74;100931.88;5057099;28;45444;-77
2022/04/13 09:56:52;;;;;;;;;5.00;5.00;;;;;15.16;77.61;100923.63;5059354;27;45418;-77
2022/04/13 09:59:29;;;;;;;;;10.75;8.00;;;;;15.23;77.80;100929.63;5100900;27;45527;-76
2022/04/13 10:01:55;;;;;;;;;7.50;6.50;;;;;15.22;77.12;100922.53;5077146;28;45427;-77
2022/04/13 10:04:28;;;;;;;;;8.00;8.00;;;;;15.19;76.75;100914.66;5076586;28;45422;-76
2022/04/13 10:06:54;;;;;;;;;8.00;8.00;;;;;15.34;77.83;100927.44;5075506;28;45512;-77
2022/04/13 10:09:20;;;;;;;;;10.50;7.00;;;;;15.29;76.02;100926.75;5076168;28;45502;-76
2022/04/13 10:12:01;;;;;;;;;7.00;7.00;;;;;15.27;76.45;100920.59;5078238;27;45548;-77
2022/04/13 10:14:26;;;;;;;;;9.50;6.50;;;;;15.34;77.82;100923.94;5097244;27;45484;-77
2022/04/13 10:16:53;;;;;;;;;12.25;8.25;;;;;15.32;76.35;100923.09;5096293;27;45524;-77
2022/04/13 10:19:21;;;;;;;;;9.00;5.00;;;;;15.29;76.88;100918.75;5082920;27;45478;-77
2022/04/13 10:21:47;;;;;;;;;9.00;7.00;;;;;15.35;76.81;100923.00;5075354;28;45334;-76
2022/04/13 10:24:19;;;;;;;;;6.25;4.00;;;;;15.40;76.64;100924.56;5075601;28;46015;-77
2022/04/13 10:26:59;;;;;;;;;9.50;7.00;;;;;15.52;76.84;100925.09;5075689;27;45540;-77
2022/04/13 10:29:27;;;;;;;;;7.50;6.75;;;;;15.59;77.12;100921.25;5080279;28;45311;-78
2022/04/13 10:32:07;;;;;;;;;6.25;6.25;;;;;15.63;76.61;100931.75;5078792;28;45666;-78
2022/04/13 10:34:35;;;;;;;;;7.25;5.00;;;;;15.69;74.63;100927.16;5060774;27;46147;-78
2022/04/13 10:37:01;;;;;;;;;10.00;8.75;;;;;15.75;74.95;100934.94;5080572;27;45636;-77
2022/04/13 10:39:26;;;;;;;;;4.00;4.00;;;;;15.81;74.31;100927.59;5080935;27;45454;-82
2022/04/13 10:41:53;;;;;;;;;5.00;4.00;;;;;15.91;74.99;100935.25;5079365;27;45422;-77
2022/04/13 10:44:26;;;;;;;;;8.00;7.00;;;;;16.10;75.11;100928.31;5077058;28;45401;-81
2022/04/13 10:46:54;;;;;;;;;3.75;2.50;;;;;16.25;73.78;100928.69;5056390;28;45579;-81
2022/04/13 10:49:23;;;;;;;;;8.00;4.00;;;;;16.39;73.17;100936.16;5075296;27;45378;-82
2022/04/13 10:51:53;;;;;;;;;7.25;5.50;;;;;16.51;71.44;100933.00;5075861;28;45593;-81
2022/04/13 10:54:24;;;;;;;;;8.00;4.25;;;;;16.69;73.59;100932.28;5074878;28;46322;-81
2022/04/13 10:56:56;;;;;;;;;7.25;7.25;;;;;16.86;73.37;100938.75;5073130;27;45560;-78
2022/04/13 10:59:28;;;;;;;;;7.50;7.50;;;;;16.96;72.72;100937.47;5077117;27;45679;-77
2022/04/13 11:01:59;;;;;;;;;5.00;5.00;;;;;16.97;70.97;100930.31;5076691;27;45643;-78
2022/04/13 11:04:27;;;;;;;;;6.25;5.00;;;;;17.02;71.13;100918.53;5073874;28;46113;-77
2022/04/13 11:06:54;;;;;;;;;10.75;4.00;;;;;17.00;71.44;100920.38;5071702;28;45569;-77
2022/04/13 11:09:26;;;;;;;;;6.00;5.00;;;;;17.05;70.22;100923.75;5074375;28;45472;-78
2022/04/13 11:11:56;;;;;;;;;5.75;5.75;;;;;17.10;70.29;100926.22;5055491;28;45808;-75
2022/04/13 11:14:23;;;;;;;;;6.00;5.00;;;;;17.14;70.07;100930.50;5055820;28;46032;-80
2022/04/13 11:17:07;;;;;;;;;2.00;2.00;;;;;17.13;70.37;100936.78;5073870;28;45582;-85
2022/04/13 11:19:33;;;;;;;;;1.50;1.50;;;;;17.19;69.40;100930.31;5072567;28;45595;-77
2022/04/13 11:21:58;;;;;;;;;1.50;1.50;;;;;17.25;67.10;100929.16;5072045;28;46023;-78